createdAt,value
2023-03-17T00:01:16.549Z,2.10
2023-03-17T00:03:45.584Z,2.20
2023-03-17T00:06:17.353Z,2.20
2023-03-17T00:08:46.238Z,1.95
2023-03-17T00:11:15.013Z,2.10
2023-03-17T00:13:42.268Z,2.10
2023-03-17T00:16:29.325Z,2.20
2023-03-17T00:18:57.615Z,2.20
2023-03-17T00:21:30.569Z,2.38
2023-03-17T00:23:58.447Z,2.15
2023-03-17T00:26:25.242Z,1.90
2023-03-17T00:28:53.038Z,2.00
2023-03-17T00:31:23.866Z,2.33
2023-03-17T00:33:55.083Z,2.25
2023-03-17T00:36:26.127Z,2.33
2023-03-17T00:38:52.799Z,2.42
2023-03-17T00:41:19.895Z,2.13
2023-03-17T00:43:46.419Z,2.03
2023-03-17T00:46:19.674Z,1.92
2023-03-17T00:48:46.796Z,2.40
2023-03-17T00:51:13.334Z,2.10
2023-03-17T00:53:39.916Z,2.00
2023-03-17T00:56:14.484Z,2.20
2023-03-17T00:58:41.207Z,1.95
2023-03-17T01:01:08.731Z,2.10
2023-03-17T01:03:35.472Z,2.15
2023-03-17T01:06:03.419Z,1.70
2023-03-17T01:08:31.393Z,1.77
2023-03-17T01:10:58.596Z,2.20
2023-03-17T01:13:25.369Z,2.03
2023-03-17T01:15:52.553Z,2.10
2023-03-17T01:18:22.823Z,2.17
2023-03-17T01:20:50.289Z,1.58
2023-03-17T01:23:17.847Z,1.80
2023-03-17T01:25:44.884Z,1.35
2023-03-17T01:28:17.972Z,1.75
2023-03-17T01:30:45.225Z,2.03
2023-03-17T01:33:13.110Z,2.00
2023-03-17T01:35:41.461Z,2.10
2023-03-17T01:38:08.636Z,2.08
2023-03-17T01:40:44.386Z,1.63
2023-03-17T01:43:10.829Z,1.90
2023-03-17T01:46:17.125Z,1.83
2023-03-17T01:48:57.157Z,1.50
2023-03-17T01:51:33.244Z,1.88
2023-03-17T01:54:06.744Z,1.70
2023-03-17T01:56:33.608Z,1.93
2023-03-17T01:59:02.761Z,1.88
2023-03-17T02:01:37.392Z,1.77
2023-03-17T02:04:04.998Z,2.22
2023-03-17T02:06:32.362Z,1.50
2023-03-17T02:09:00.697Z,1.93
2023-03-17T02:11:28.533Z,1.95
2023-03-17T02:13:55.071Z,1.67
2023-03-17T02:16:21.639Z,1.60
2023-03-17T02:18:49.658Z,1.65
2023-03-17T02:21:25.191Z,1.63
2023-03-17T02:23:51.706Z,1.60
2023-03-17T02:26:20.041Z,2.22
2023-03-17T02:28:46.500Z,1.50
2023-03-17T02:31:13.118Z,1.48
2023-03-17T02:33:39.581Z,1.83
2023-03-17T02:36:06.350Z,1.90
2023-03-17T02:38:32.850Z,1.58
2023-03-17T02:40:59.299Z,1.52
2023-03-17T02:43:25.756Z,2.30
2023-03-17T02:45:52.269Z,1.53
2023-03-17T02:48:19.367Z,1.77
2023-03-17T02:50:45.970Z,1.70
2023-03-17T02:53:14.621Z,1.80
2023-03-17T02:55:42.098Z,1.52
2023-03-17T02:58:08.599Z,1.80
2023-03-17T03:00:35.101Z,2.35
2023-03-17T03:03:01.581Z,1.48
2023-03-17T03:05:28.841Z,1.60
2023-03-17T03:07:55.614Z,1.38
2023-03-17T03:10:22.109Z,1.40
2023-03-17T03:12:48.544Z,1.55
2023-03-17T03:15:15.678Z,1.48
2023-03-17T03:17:42.136Z,1.45
2023-03-17T03:20:11.456Z,2.03
2023-03-17T03:22:37.935Z,1.73
2023-03-17T03:25:05.081Z,1.60
2023-03-17T03:27:32.474Z,1.90
2023-03-17T03:29:58.938Z,1.90
2023-03-17T03:32:25.901Z,1.60
2023-03-17T03:34:52.942Z,1.73
2023-03-17T03:37:21.564Z,1.75
2023-03-17T03:39:48.005Z,1.80
2023-03-17T03:42:14.469Z,1.55
2023-03-17T03:44:40.948Z,1.60
2023-03-17T03:47:07.609Z,2.03
2023-03-17T03:49:34.078Z,1.50
2023-03-17T03:52:00.522Z,1.30
2023-03-17T03:54:27.013Z,1.65
2023-03-17T03:56:53.477Z,1.65
2023-03-17T03:59:20.045Z,1.27
2023-03-17T04:01:46.523Z,1.60
2023-03-17T04:04:12.948Z,1.83
2023-03-17T04:06:39.682Z,1.42
2023-03-17T04:09:10.806Z,1.38
2023-03-17T04:11:37.261Z,1.53
2023-03-17T04:14:04.123Z,1.30
2023-03-17T04:16:30.567Z,1.33
2023-03-17T04:18:57.723Z,1.13
2023-03-17T04:21:24.224Z,1.48
2023-03-17T04:23:50.687Z,1.50
2023-03-17T04:26:18.702Z,1.38
2023-03-17T04:28:45.200Z,1.30
2023-03-17T04:31:15.462Z,1.30
2023-03-17T04:33:42.299Z,1.25
2023-03-17T04:36:17.208Z,1.50
2023-03-17T04:38:43.653Z,1.40
2023-03-17T04:41:10.264Z,1.80
2023-03-17T04:43:36.934Z,1.52
2023-03-17T04:46:03.476Z,1.50
2023-03-17T04:48:30.001Z,1.50
2023-03-17T04:50:56.499Z,1.17
2023-03-17T04:53:23.303Z,1.60
2023-03-17T04:55:49.708Z,1.67
2023-03-17T04:58:29.972Z,1.50
2023-03-17T05:00:57.047Z,1.60
2023-03-17T05:03:27.621Z,1.48
2023-03-17T05:05:54.497Z,1.40
2023-03-17T05:08:20.972Z,1.55
2023-03-17T05:10:47.437Z,1.45
2023-03-17T05:13:13.972Z,1.20
2023-03-17T05:15:40.636Z,1.20
2023-03-17T05:18:07.132Z,1.25
2023-03-17T05:20:33.601Z,1.52
2023-03-17T05:23:00.029Z,1.45
2023-03-17T05:25:28.005Z,1.20
2023-03-17T05:27:54.575Z,1.70
2023-03-17T05:30:21.048Z,1.70
2023-03-17T05:32:47.591Z,1.45
2023-03-17T05:35:14.067Z,1.63
2023-03-17T05:37:40.713Z,1.50
2023-03-17T05:40:08.350Z,1.88
2023-03-17T05:42:34.941Z,1.70
2023-03-17T05:45:01.398Z,1.55
2023-03-17T05:47:28.442Z,12.75
2023-03-17T05:49:54.935Z,3.67
2023-03-17T05:52:22.083Z,2.20
2023-03-17T05:54:49.083Z,1.50
2023-03-17T05:57:16.265Z,1.58
2023-03-17T05:59:44.378Z,2.60
2023-03-17T06:02:11.566Z,2.20
2023-03-17T06:04:38.978Z,1.90
2023-03-17T06:07:06.195Z,3.65
2023-03-17T06:09:33.652Z,22.70
2023-03-17T06:12:00.459Z,12.43
2023-03-17T06:14:27.339Z,5.50
2023-03-17T06:16:54.145Z,2.60
2023-03-17T06:19:20.950Z,1.67
2023-03-17T06:21:48.223Z,1.70
2023-03-17T06:24:14.696Z,1.63
2023-03-17T06:26:42.455Z,1.63
2023-03-17T06:29:10.081Z,1.67
2023-03-17T06:31:37.337Z,1.50
2023-03-17T06:34:03.927Z,1.73
2023-03-17T06:36:32.126Z,1.73
2023-03-17T06:39:00.583Z,1.43
2023-03-17T06:41:27.564Z,1.42
2023-03-17T06:43:56.568Z,1.67
2023-03-17T06:46:24.625Z,1.60
2023-03-17T06:48:51.070Z,1.90
2023-03-17T06:51:17.532Z,1.60
2023-03-17T06:53:43.981Z,1.65
2023-03-17T06:56:23.516Z,1.67
2023-03-17T06:58:51.200Z,1.65
2023-03-17T07:01:17.787Z,1.60
2023-03-17T07:03:44.467Z,1.70
2023-03-17T07:06:11.177Z,1.65
2023-03-17T07:08:37.656Z,1.80
2023-03-17T07:11:04.580Z,1.73
2023-03-17T07:13:35.484Z,1.48
2023-03-17T07:16:05.428Z,1.90
2023-03-17T07:18:34.916Z,2.08
2023-03-17T07:21:02.249Z,1.45
2023-03-17T07:23:30.277Z,1.70
2023-03-17T07:25:59.825Z,1.77
2023-03-17T07:28:26.233Z,1.90
2023-03-17T07:30:52.706Z,2.35
2023-03-17T07:33:22.422Z,2.33
2023-03-17T07:35:49.707Z,2.17
2023-03-17T07:38:17.819Z,2.25
2023-03-17T07:40:47.635Z,2.17
2023-03-17T07:43:15.173Z,1.70
2023-03-17T07:45:42.296Z,2.00
2023-03-17T07:48:09.595Z,2.38
2023-03-17T07:50:37.143Z,2.10
2023-03-17T07:53:04.677Z,2.60
2023-03-17T07:55:32.630Z,2.38
2023-03-17T07:57:59.560Z,1.90
2023-03-17T08:00:27.096Z,2.30
2023-03-17T08:03:06.963Z,2.13
2023-03-17T08:05:35.670Z,2.17
2023-03-17T08:08:02.110Z,1.98
2023-03-17T08:10:28.684Z,2.25
2023-03-17T08:12:55.682Z,2.25
2023-03-17T08:15:22.541Z,2.08
2023-03-17T08:17:49.117Z,2.83
2023-03-17T08:20:15.748Z,2.08
2023-03-17T08:22:42.317Z,2.75
2023-03-17T08:25:09.791Z,2.85
2023-03-17T08:27:36.281Z,2.60
2023-03-17T08:30:04.759Z,2.40
2023-03-17T08:32:31.271Z,2.97
2023-03-17T08:35:00.063Z,2.33
2023-03-17T08:37:26.672Z,2.10
2023-03-17T08:39:53.099Z,2.50
2023-03-17T08:42:19.513Z,1.97
2023-03-17T08:44:46.532Z,2.17
2023-03-17T08:47:13.012Z,2.22
2023-03-17T08:49:39.474Z,2.00
2023-03-17T08:52:05.941Z,2.60
2023-03-17T08:54:33.992Z,2.47
2023-03-17T08:57:04.017Z,2.40
2023-03-17T08:59:30.534Z,2.55
2023-03-17T09:01:57.019Z,2.58
2023-03-17T09:04:23.581Z,2.28
2023-03-17T09:07:02.746Z,3.03
2023-03-17T09:09:31.223Z,2.20
2023-03-17T09:11:57.720Z,2.58
2023-03-17T09:14:24.927Z,5.40
2023-03-17T09:16:52.441Z,3.35
2023-03-17T09:19:21.652Z,2.37
2023-03-17T09:21:48.606Z,2.50
2023-03-17T09:24:15.043Z,2.65
2023-03-17T09:26:41.846Z,2.40
2023-03-17T09:29:09.334Z,2.50
2023-03-17T09:31:43.458Z,2.23
2023-03-17T09:34:10.907Z,2.88
2023-03-17T09:36:37.687Z,2.40
2023-03-17T09:39:04.163Z,2.80
2023-03-17T09:41:58.848Z,2.63
2023-03-17T09:44:40.491Z,2.70
2023-03-17T09:47:40.522Z,2.20
2023-03-17T09:50:15.963Z,2.47
2023-03-17T09:52:43.773Z,2.45
2023-03-17T09:55:20.106Z,2.83
2023-03-17T09:57:47.174Z,2.70
2023-03-17T10:00:23.093Z,3.10
2023-03-17T10:02:49.563Z,2.80
2023-03-17T10:05:24.980Z,3.20
2023-03-17T10:07:59.450Z,2.67
2023-03-17T10:10:42.487Z,3.10
2023-03-17T10:13:41.570Z,2.88
2023-03-17T10:16:14.388Z,3.03
2023-03-17T10:18:49.781Z,2.75
2023-03-17T10:21:24.282Z,2.90
2023-03-17T10:23:53.427Z,3.07
2023-03-17T10:26:42.194Z,2.67
2023-03-17T10:29:16.246Z,2.55
2023-03-17T10:31:42.747Z,14.60
2023-03-17T10:34:19.343Z,3.03
2023-03-17T10:36:53.609Z,2.60
2023-03-17T10:39:24.097Z,2.58
2023-03-17T10:41:59.735Z,2.60
2023-03-17T10:44:49.790Z,2.85
2023-03-17T10:47:50.145Z,2.75
2023-03-17T10:50:25.294Z,3.10
2023-03-17T10:53:00.531Z,2.72
2023-03-17T10:55:42.638Z,2.60
2023-03-17T10:58:36.324Z,2.60
2023-03-17T11:01:15.497Z,2.55
2023-03-17T11:03:42.537Z,2.70
2023-03-17T11:06:13.251Z,2.75
2023-03-17T11:08:51.444Z,2.70
2023-03-17T11:11:45.905Z,2.90
2023-03-17T11:14:15.399Z,2.88
2023-03-17T11:16:55.333Z,6.70
2023-03-17T11:19:28.641Z,23.88
2023-03-17T11:22:04.966Z,4.32
2023-03-17T11:24:36.310Z,7.15
2023-03-17T11:27:11.990Z,3.70
2023-03-17T11:29:41.167Z,6.37
2023-03-17T11:32:28.764Z,4.22
2023-03-17T11:35:24.254Z,3.20
2023-03-17T11:38:18.881Z,3.05
2023-03-17T11:41:00.879Z,3.92
2023-03-17T11:44:16.615Z,3.13
2023-03-17T11:46:54.562Z,3.30
2023-03-17T11:49:35.964Z,3.30
2023-03-17T11:52:39.370Z,3.58
2023-03-17T11:55:16.416Z,2.70
2023-03-17T11:57:59.900Z,3.40
2023-03-17T12:00:34.494Z,3.20
2023-03-17T12:03:13.324Z,3.53
2023-03-17T12:05:42.677Z,3.15
2023-03-17T12:08:19.446Z,3.60
2023-03-17T12:10:50.573Z,3.00
2023-03-17T12:13:40.266Z,2.83
2023-03-17T12:16:20.225Z,2.95
2023-03-17T12:19:07.200Z,3.33
2023-03-17T12:21:46.118Z,3.90
2023-03-17T12:24:50.313Z,3.50
2023-03-17T12:27:25.950Z,3.30
2023-03-17T12:29:59.109Z,3.72
2023-03-17T12:32:41.879Z,3.28
2023-03-17T12:35:29.314Z,3.92
2023-03-17T12:37:59.445Z,5.03
2023-03-17T12:40:34.944Z,3.72
2023-03-17T12:43:34.668Z,3.83
2023-03-17T12:46:10.299Z,3.40
2023-03-17T12:48:39.674Z,4.90
2023-03-17T12:51:40.073Z,7.03
2023-03-17T12:54:15.313Z,3.55
2023-03-17T12:56:47.216Z,4.07
2023-03-17T12:59:21.117Z,3.55
2023-03-17T13:02:18.196Z,4.05
2023-03-17T13:05:02.020Z,3.80
2023-03-17T13:07:56.116Z,3.65
2023-03-17T13:10:37.817Z,3.40
2023-03-17T13:13:23.210Z,3.53
2023-03-17T13:15:57.778Z,4.05
2023-03-17T13:18:46.995Z,3.20
2023-03-17T13:21:17.170Z,3.90
2023-03-17T13:23:47.314Z,4.95
2023-03-17T13:26:19.009Z,3.88
2023-03-17T13:28:49.294Z,3.55
2023-03-17T13:31:29.162Z,4.00
2023-03-17T13:34:17.771Z,4.75
2023-03-17T13:36:52.721Z,3.90
2023-03-17T13:39:27.739Z,3.65
2023-03-17T13:42:19.187Z,3.42
2023-03-17T13:45:05.481Z,3.53
2023-03-17T13:47:38.323Z,4.40
2023-03-17T13:50:24.399Z,4.22
2023-03-17T13:53:08.622Z,4.30
2023-03-17T13:55:36.829Z,3.40
2023-03-17T13:58:11.876Z,4.43
2023-03-17T14:00:41.508Z,3.70
2023-03-17T14:03:16.308Z,4.18
2023-03-17T14:05:47.836Z,4.40
2023-03-17T14:08:31.972Z,3.80
2023-03-17T14:11:01.567Z,3.63
2023-03-17T14:13:32.289Z,3.88
2023-03-17T14:16:03.718Z,3.70
2023-03-17T14:18:39.013Z,4.22
2023-03-17T14:21:11.642Z,3.90
2023-03-17T14:23:38.260Z,3.80
2023-03-17T14:26:06.607Z,4.20
2023-03-17T14:28:34.777Z,3.90
2023-03-17T14:31:06.421Z,3.78
2023-03-17T14:33:36.661Z,3.88
2023-03-17T14:36:07.860Z,3.97
2023-03-17T14:38:37.025Z,3.40
2023-03-17T14:41:06.598Z,3.38
2023-03-17T14:43:35.698Z,4.00
2023-03-17T14:46:07.940Z,3.95
2023-03-17T14:48:38.058Z,3.67
2023-03-17T14:51:16.117Z,3.90
2023-03-17T14:53:47.018Z,3.63
2023-03-17T14:56:13.948Z,3.88
2023-03-17T14:58:46.012Z,3.90
2023-03-17T15:01:20.088Z,4.30
2023-03-17T15:04:15.779Z,4.47
2023-03-17T15:07:00.152Z,4.40
2023-03-17T15:09:38.213Z,4.82
2023-03-17T15:12:19.249Z,4.40
2023-03-17T15:14:46.465Z,4.10
2023-03-17T15:17:20.707Z,4.38
2023-03-17T15:19:52.730Z,4.22
2023-03-17T15:22:30.799Z,4.22
2023-03-17T15:25:16.695Z,3.90
2023-03-17T15:27:44.350Z,3.90
2023-03-17T15:30:12.263Z,3.67
2023-03-17T15:32:39.749Z,3.78
2023-03-17T15:35:07.871Z,3.60
2023-03-17T15:37:35.425Z,3.50
2023-03-17T15:40:05.666Z,4.03
2023-03-17T15:42:36.131Z,3.90
2023-03-17T15:45:04.849Z,4.35
2023-03-17T15:47:33.864Z,4.13
2023-03-17T15:50:10.017Z,5.53
2023-03-17T15:52:36.527Z,19.70
2023-03-17T15:55:16.641Z,9.68
2023-03-17T15:57:50.760Z,29.48
2023-03-17T16:00:22.809Z,24.98
2023-03-17T16:02:52.216Z,9.65
2023-03-17T16:05:22.276Z,4.47
2023-03-17T16:07:48.986Z,4.30
2023-03-17T16:10:21.710Z,3.83
2023-03-17T16:12:48.901Z,5.63
2023-03-17T16:15:24.178Z,4.78
2023-03-17T16:17:59.686Z,4.30
2023-03-17T16:20:31.426Z,5.53
2023-03-17T16:23:07.266Z,6.03
2023-03-17T16:25:37.661Z,4.53
2023-03-17T16:28:32.170Z,4.82
2023-03-17T16:31:01.028Z,4.70
2023-03-17T16:33:39.065Z,4.50
2023-03-17T16:36:09.518Z,4.30
2023-03-17T16:38:36.085Z,4.45
2023-03-17T16:41:16.624Z,5.13
2023-03-17T16:43:44.825Z,4.33
2023-03-17T16:46:14.072Z,4.47
2023-03-17T16:48:40.636Z,4.75
2023-03-17T16:51:07.193Z,4.68
2023-03-17T16:53:33.821Z,5.03
2023-03-17T16:56:00.303Z,5.97
2023-03-17T16:58:32.896Z,4.80
2023-03-17T17:01:02.493Z,4.75
2023-03-17T17:03:29.633Z,5.60
2023-03-17T17:05:56.205Z,5.25
2023-03-17T17:08:22.981Z,5.77
2023-03-17T17:10:50.248Z,5.45
2023-03-17T17:13:16.835Z,5.65
2023-03-17T17:15:43.517Z,5.40
2023-03-17T17:18:22.041Z,5.20
2023-03-17T17:20:49.319Z,5.30
2023-03-17T17:23:21.532Z,5.57
2023-03-17T17:25:49.338Z,5.30
2023-03-17T17:28:18.643Z,5.90
2023-03-17T17:30:50.178Z,5.78
2023-03-17T17:33:17.933Z,5.37
2023-03-17T17:35:45.372Z,5.75
2023-03-17T17:38:26.676Z,5.63
2023-03-17T17:41:00.860Z,5.68
2023-03-17T17:43:27.386Z,6.57
2023-03-17T17:45:54.787Z,5.50
2023-03-17T17:48:23.711Z,7.55
2023-03-17T17:50:51.870Z,7.32
2023-03-17T17:53:18.752Z,7.38
2023-03-17T17:55:47.325Z,6.70
2023-03-17T17:58:18.852Z,6.37
2023-03-17T18:00:45.337Z,6.97
2023-03-17T18:03:12.256Z,6.90
2023-03-17T18:05:40.650Z,7.68
2023-03-17T18:08:07.094Z,7.95
2023-03-17T18:10:34.588Z,7.87
2023-03-17T18:13:01.262Z,9.05
2023-03-17T18:15:27.841Z,8.98
2023-03-17T18:17:56.429Z,9.00
2023-03-17T18:20:24.045Z,8.65
2023-03-17T18:22:52.314Z,9.00
2023-03-17T18:25:19.742Z,8.95
2023-03-17T18:27:47.451Z,8.57
2023-03-17T18:30:35.141Z,10.00
2023-03-17T18:33:13.295Z,9.88
2023-03-17T18:35:40.234Z,10.37
2023-03-17T18:38:08.242Z,9.57
2023-03-17T18:40:36.013Z,9.60
2023-03-17T18:43:02.608Z,10.18
2023-03-17T18:45:29.074Z,9.88
2023-03-17T18:47:55.822Z,10.07
2023-03-17T18:50:22.524Z,9.30
2023-03-17T18:52:49.859Z,9.45
2023-03-17T18:55:17.096Z,10.60
2023-03-17T18:57:44.930Z,10.85
2023-03-17T19:00:14.042Z,10.70
2023-03-17T19:02:40.715Z,9.90
2023-03-17T19:05:07.556Z,10.35
2023-03-17T19:07:34.661Z,10.15
2023-03-17T19:10:01.116Z,11.15
2023-03-17T19:12:28.330Z,11.67
2023-03-17T19:14:55.483Z,12.32
2023-03-17T19:17:22.703Z,14.50
2023-03-17T19:19:50.532Z,12.95
2023-03-17T19:22:17.172Z,13.50
2023-03-17T19:24:43.997Z,12.20
2023-03-17T19:27:10.472Z,11.63
2023-03-17T19:29:36.871Z,10.77
2023-03-17T19:32:03.858Z,9.57
2023-03-17T19:34:30.410Z,8.60
2023-03-17T19:36:56.874Z,7.30
2023-03-17T19:39:23.684Z,7.32
2023-03-17T19:41:53.254Z,6.78
2023-03-17T19:44:19.695Z,6.63
2023-03-17T19:46:46.255Z,6.88
2023-03-17T19:49:12.699Z,6.90
2023-03-17T19:51:39.260Z,7.18
2023-03-17T19:54:06.075Z,5.72
2023-03-17T19:56:33.677Z,6.55
2023-03-17T19:59:00.522Z,6.70
2023-03-17T20:01:28.979Z,5.90
2023-03-17T20:03:55.543Z,5.65
2023-03-17T20:06:22.183Z,5.07
2023-03-17T20:08:48.605Z,5.32
2023-03-17T20:11:15.044Z,5.38
2023-03-17T20:13:41.854Z,4.97
2023-03-17T20:16:09.044Z,4.55
2023-03-17T20:18:36.019Z,5.47
2023-03-17T20:21:05.664Z,5.28
2023-03-17T20:23:32.923Z,4.88
2023-03-17T20:26:00.396Z,4.33
2023-03-17T20:28:29.837Z,4.05
2023-03-17T20:31:00.382Z,4.78
2023-03-17T20:33:27.809Z,4.35
2023-03-17T20:35:54.417Z,4.03
2023-03-17T20:38:21.230Z,4.50
2023-03-17T20:40:47.739Z,4.15
2023-03-17T20:43:14.225Z,4.88
2023-03-17T20:45:41.124Z,4.15
2023-03-17T20:48:09.337Z,4.75
2023-03-17T20:50:36.509Z,4.20
2023-03-17T20:53:02.895Z,4.10
2023-03-17T20:55:30.766Z,4.07
2023-03-17T20:57:58.841Z,4.30
2023-03-17T21:00:26.169Z,4.88
2023-03-17T21:02:53.117Z,4.97
2023-03-17T21:05:23.729Z,19.05
2023-03-17T21:07:50.624Z,10.25
2023-03-17T21:10:17.960Z,6.50
2023-03-17T21:12:45.040Z,4.85
2023-03-17T21:15:12.985Z,5.20
2023-03-17T21:17:40.410Z,4.68
2023-03-17T21:20:09.546Z,5.40
2023-03-17T21:22:36.859Z,5.15
2023-03-17T21:25:08.649Z,5.43
2023-03-17T21:27:40.658Z,5.57
2023-03-17T21:30:11.926Z,5.05
2023-03-17T21:32:40.353Z,5.20
2023-03-17T21:35:08.087Z,5.50
2023-03-17T21:37:35.069Z,5.40
2023-03-17T21:40:01.696Z,5.10
2023-03-17T21:42:28.361Z,4.82
2023-03-17T21:44:55.172Z,5.07
2023-03-17T21:47:21.576Z,5.18
2023-03-17T21:49:48.031Z,5.53
2023-03-17T21:52:15.083Z,4.93
2023-03-17T21:54:41.950Z,5.13
2023-03-17T21:57:08.676Z,5.22
2023-03-17T21:59:35.705Z,5.60
2023-03-17T22:02:02.923Z,5.75
2023-03-17T22:04:29.939Z,5.83
2023-03-17T22:06:58.763Z,5.57
2023-03-17T22:09:25.301Z,5.80
2023-03-17T22:11:51.774Z,5.88
2023-03-17T22:14:20.503Z,7.35
2023-03-17T22:16:48.325Z,7.07
2023-03-17T22:19:15.695Z,6.72
2023-03-17T22:21:42.777Z,7.63
2023-03-17T22:24:09.306Z,7.53
2023-03-17T22:26:35.772Z,8.70
2023-03-17T22:29:02.397Z,13.93
2023-03-17T22:31:29.659Z,7.55
2023-03-17T22:33:58.334Z,6.43
2023-03-17T22:36:25.629Z,6.63
2023-03-17T22:38:52.613Z,6.55
2023-03-17T22:41:22.720Z,13.73
2023-03-17T22:43:49.684Z,6.93
2023-03-17T22:46:16.933Z,6.03
2023-03-17T22:48:44.423Z,6.10
2023-03-17T22:51:16.742Z,5.53
2023-03-17T22:53:44.245Z,5.57
2023-03-17T22:56:12.220Z,5.57
2023-03-17T22:58:39.281Z,5.53
2023-03-17T23:01:09.108Z,5.10
2023-03-17T23:03:35.753Z,5.18
2023-03-17T23:06:03.892Z,5.40
2023-03-17T23:08:34.972Z,5.68
2023-03-17T23:11:08.701Z,5.97
2023-03-17T23:13:35.542Z,5.65
2023-03-17T23:16:02.984Z,6.32
2023-03-17T23:18:29.375Z,6.13
2023-03-17T23:20:55.780Z,6.50
2023-03-17T23:23:22.188Z,7.07
2023-03-17T23:25:49.045Z,6.38
2023-03-17T23:28:15.972Z,5.22
2023-03-17T23:30:45.714Z,5.90
2023-03-17T23:33:12.303Z,5.80
2023-03-17T23:35:39.573Z,5.82
2023-03-17T23:38:06.133Z,5.75
2023-03-17T23:40:34.417Z,5.30
2023-03-17T23:43:01.888Z,6.00
2023-03-17T23:45:28.487Z,6.30
2023-03-17T23:47:57.310Z,6.10
2023-03-17T23:50:23.797Z,5.95
2023-03-17T23:52:50.482Z,5.63
2023-03-17T23:55:17.380Z,5.37
2023-03-17T23:57:44.288Z,6.20
